createdAt,value
2019-03-30T00:00:57.869Z,118.13
2019-03-30T00:03:29.083Z,118.62
2019-03-30T00:06:00.265Z,102.90
2019-03-30T00:08:31.470Z,119.33
2019-03-30T00:11:02.645Z,112.55
2019-03-30T00:13:33.837Z,117.35
2019-03-30T00:16:05.102Z,108.15
2019-03-30T00:18:36.288Z,94.92
2019-03-30T00:21:07.467Z,110.97
2019-03-30T00:23:38.673Z,106.70
2019-03-30T00:26:09.872Z,109.65
2019-03-30T00:28:41.037Z,116.25
2019-03-30T00:31:12.260Z,115.00
2019-03-30T00:33:43.435Z,105.80
2019-03-30T00:36:14.600Z,101.62
2019-03-30T00:38:45.813Z,102.17
2019-03-30T00:41:17.073Z,104.95
2019-03-30T00:43:48.275Z,123.82
2019-03-30T00:46:19.443Z,122.80
2019-03-30T00:48:51.136Z,111.42
2019-03-30T00:51:22.336Z,113.60
2019-03-30T00:53:53.493Z,103.30
2019-03-30T00:56:24.748Z,103.70
2019-03-30T00:58:55.988Z,109.20
2019-03-30T01:01:27.195Z,102.67
2019-03-30T01:03:58.386Z,101.87
2019-03-30T01:06:29.583Z,108.12
2019-03-30T01:09:00.776Z,125.00
2019-03-30T01:11:32.318Z,123.05
2019-03-30T01:14:03.514Z,129.53
2019-03-30T01:16:34.683Z,118.70
2019-03-30T01:19:06.459Z,124.67
2019-03-30T01:21:37.683Z,131.40
2019-03-30T01:24:08.863Z,121.13
2019-03-30T01:26:40.029Z,116.97
2019-03-30T01:29:11.213Z,113.85
2019-03-30T01:31:42.377Z,105.10
2019-03-30T01:34:13.586Z,107.25
2019-03-30T01:36:44.803Z,102.60
2019-03-30T01:39:15.981Z,105.52
2019-03-30T01:41:47.158Z,106.97
2019-03-30T01:44:18.362Z,115.40
2019-03-30T01:46:49.516Z,108.47
2019-03-30T01:49:20.692Z,109.40
2019-03-30T01:51:51.908Z,110.52
2019-03-30T01:54:23.079Z,114.70
2019-03-30T01:56:54.354Z,105.87
2019-03-30T01:59:25.570Z,111.00
2019-03-30T02:01:56.723Z,109.17
2019-03-30T02:04:27.879Z,112.47
2019-03-30T02:06:59.079Z,95.75
2019-03-30T02:09:30.265Z,102.25
2019-03-30T02:12:01.586Z,116.73
2019-03-30T02:14:32.776Z,109.22
2019-03-30T02:17:03.974Z,109.75
2019-03-30T02:19:35.158Z,102.12
2019-03-30T02:22:06.361Z,109.67
2019-03-30T02:24:37.549Z,112.55
2019-03-30T02:27:08.717Z,114.12
2019-03-30T02:29:39.908Z,100.70
2019-03-30T02:32:11.073Z,108.47
2019-03-30T02:34:42.247Z,115.92
2019-03-30T02:37:13.450Z,110.45
2019-03-30T02:39:44.637Z,120.02
2019-03-30T02:42:15.860Z,116.82
2019-03-30T02:44:47.085Z,118.35
2019-03-30T02:47:19.119Z,122.17
2019-03-30T02:49:50.358Z,124.85
2019-03-30T02:52:21.592Z,110.40
2019-03-30T02:54:52.742Z,125.30
2019-03-30T02:57:23.954Z,128.87
2019-03-30T02:59:55.151Z,116.85
2019-03-30T03:02:26.302Z,128.12
2019-03-30T03:04:57.533Z,137.60
2019-03-30T03:07:28.765Z,120.60
2019-03-30T03:09:59.949Z,116.67
2019-03-30T03:12:31.331Z,124.22
2019-03-30T03:15:02.510Z,115.92
2019-03-30T03:17:33.716Z,127.60
2019-03-30T03:20:05.459Z,128.60
2019-03-30T03:22:36.622Z,144.65
2019-03-30T03:25:08.180Z,123.42
2019-03-30T03:27:39.416Z,128.90
2019-03-30T03:30:11.397Z,135.45
2019-03-30T03:32:42.575Z,133.07
2019-03-30T03:35:14.005Z,123.20
2019-03-30T03:37:46.507Z,131.85
2019-03-30T03:40:18.191Z,127.38
2019-03-30T03:42:49.467Z,114.30
2019-03-30T03:45:20.638Z,137.92
2019-03-30T03:47:51.830Z,133.75
2019-03-30T03:50:45.532Z,129.00
2019-03-30T03:53:18.361Z,127.95
2019-03-30T03:55:49.613Z,132.30
2019-03-30T03:58:22.281Z,129.27
2019-03-30T04:00:55.230Z,122.55
2019-03-30T04:03:27.896Z,118.70
2019-03-30T04:06:03.141Z,118.08
2019-03-30T04:08:34.549Z,114.95
2019-03-30T04:11:06.916Z,107.35
2019-03-30T04:13:39.075Z,122.58
2019-03-30T04:16:10.877Z,132.32
2019-03-30T04:18:42.121Z,125.15
2019-03-30T04:21:13.416Z,122.35
2019-03-30T04:23:44.590Z,121.85
2019-03-30T04:26:15.762Z,109.75
2019-03-30T04:28:47.012Z,104.20
2019-03-30T04:31:18.187Z,102.80
2019-03-30T04:33:49.336Z,100.65
2019-03-30T04:36:20.541Z,102.78
2019-03-30T04:38:51.745Z,103.27
2019-03-30T04:41:22.913Z,107.70
2019-03-30T04:43:54.146Z,98.85
2019-03-30T04:46:25.457Z,104.85
2019-03-30T04:48:56.630Z,112.03
2019-03-30T04:51:27.835Z,106.32
2019-03-30T04:53:59.021Z,108.25
2019-03-30T04:56:30.187Z,111.35
2019-03-30T04:59:01.384Z,103.92
2019-03-30T05:01:32.574Z,118.80
2019-03-30T05:04:03.722Z,111.85
2019-03-30T05:06:34.947Z,116.62
2019-03-30T05:09:07.135Z,112.75
2019-03-30T05:11:38.331Z,107.58
2019-03-30T05:14:09.511Z,103.72
2019-03-30T05:16:40.714Z,102.87
2019-03-30T05:19:11.990Z,96.55
2019-03-30T05:21:43.212Z,105.92
2019-03-30T05:24:14.385Z,110.65
2019-03-30T05:26:45.575Z,108.12
2019-03-30T05:29:16.779Z,97.12
2019-03-30T05:31:48.029Z,102.72
2019-03-30T05:34:19.271Z,89.90
2019-03-30T05:36:50.499Z,98.55
2019-03-30T05:39:21.643Z,93.50
2019-03-30T05:41:52.832Z,97.20
2019-03-30T05:44:24.073Z,101.33
2019-03-30T05:46:55.239Z,97.42
2019-03-30T05:49:26.398Z,92.90
2019-03-30T05:51:57.612Z,96.90
2019-03-30T05:54:28.803Z,87.17
2019-03-30T05:57:00.051Z,92.42
2019-03-30T05:59:31.479Z,76.30
2019-03-30T06:02:02.658Z,85.77
2019-03-30T06:04:33.903Z,83.42
2019-03-30T06:07:05.115Z,84.87
2019-03-30T06:09:36.315Z,88.27
2019-03-30T06:12:07.493Z,84.60
2019-03-30T06:14:38.683Z,81.90
2019-03-30T06:17:09.829Z,82.25
2019-03-30T06:19:41.043Z,100.10
2019-03-30T06:22:12.273Z,91.90
2019-03-30T06:24:43.434Z,93.92
2019-03-30T06:27:14.638Z,92.92
2019-03-30T06:29:47.452Z,84.92
2019-03-30T06:32:18.626Z,86.37
2019-03-30T06:34:49.809Z,82.27
2019-03-30T06:37:20.993Z,86.53
2019-03-30T06:39:52.185Z,82.70
2019-03-30T06:42:23.335Z,80.07
2019-03-30T06:44:54.691Z,79.53
2019-03-30T06:47:25.955Z,74.82
2019-03-30T06:49:57.115Z,78.30
2019-03-30T06:52:28.328Z,76.92
2019-03-30T06:54:59.552Z,72.03
2019-03-30T06:57:30.812Z,76.20
2019-03-30T07:00:02.058Z,72.17
2019-03-30T07:02:33.468Z,69.25
2019-03-30T07:05:04.933Z,65.85
2019-03-30T07:07:36.532Z,70.30
2019-03-30T07:10:09.499Z,64.67
2019-03-30T07:12:44.272Z,65.25
2019-03-30T07:15:15.458Z,66.53
2019-03-30T07:17:50.416Z,63.98
2019-03-30T07:20:46.810Z,54.10
2019-03-30T07:23:18.358Z,57.35
2019-03-30T07:25:50.813Z,53.20
2019-03-30T07:28:22.075Z,51.83
2019-03-30T07:30:53.378Z,48.87
2019-03-30T07:33:24.568Z,45.20
2019-03-30T07:35:55.870Z,33.88
2019-03-30T07:38:27.054Z,31.33
2019-03-30T07:40:58.326Z,30.95
2019-03-30T07:43:29.545Z,34.45
2019-03-30T07:46:01.027Z,31.60
2019-03-30T07:48:32.275Z,29.98
2019-03-30T07:51:03.436Z,30.70
2019-03-30T07:53:44.498Z,30.90
2019-03-30T07:56:09.035Z,27.77
2019-03-30T07:58:40.302Z,32.00
2019-03-30T08:01:11.498Z,31.37
2019-03-30T08:03:42.982Z,34.90
2019-03-30T08:06:14.164Z,30.48
2019-03-30T08:08:45.406Z,33.02
2019-03-30T08:11:16.699Z,28.32
2019-03-30T08:13:47.926Z,29.67
2019-03-30T08:16:19.116Z,36.73
2019-03-30T08:18:50.313Z,30.65
2019-03-30T08:21:21.672Z,30.95
2019-03-30T08:23:52.886Z,32.67
2019-03-30T08:26:24.133Z,29.95
2019-03-30T08:28:55.472Z,31.40
2019-03-30T08:31:26.687Z,35.08
2019-03-30T08:33:57.911Z,33.58
2019-03-30T08:36:29.097Z,34.88
2019-03-30T08:39:00.253Z,30.80
2019-03-30T08:41:31.469Z,34.65
2019-03-30T08:44:02.840Z,37.40
2019-03-30T08:46:34.109Z,35.58
2019-03-30T08:49:05.334Z,31.33
2019-03-30T08:51:36.536Z,32.73
2019-03-30T08:54:07.940Z,36.20
2019-03-30T08:56:39.188Z,32.15
2019-03-30T08:59:10.463Z,30.68
2019-03-30T09:01:41.669Z,30.05
2019-03-30T09:04:12.945Z,32.88
2019-03-30T09:06:44.242Z,33.70
2019-03-30T09:09:15.521Z,31.42
2019-03-30T09:11:46.779Z,33.28
2019-03-30T09:14:17.937Z,31.57
2019-03-30T09:16:49.290Z,29.10
2019-03-30T09:19:20.511Z,34.45
2019-03-30T09:21:51.664Z,31.77
2019-03-30T09:24:22.936Z,25.82
2019-03-30T09:26:54.251Z,29.20
2019-03-30T09:29:25.482Z,29.07
2019-03-30T09:31:56.722Z,28.75
2019-03-30T09:34:28.192Z,30.70
2019-03-30T09:36:59.375Z,31.02
2019-03-30T09:39:30.568Z,26.45
2019-03-30T09:42:01.775Z,28.38
2019-03-30T09:44:33.039Z,26.23
2019-03-30T09:47:04.266Z,28.45
2019-03-30T09:49:35.463Z,25.60
2019-03-30T09:52:06.747Z,28.50
2019-03-30T09:54:37.949Z,27.75
2019-03-30T09:57:09.195Z,24.52
2019-03-30T09:59:40.428Z,24.85
2019-03-30T10:02:11.720Z,23.15
2019-03-30T10:04:42.998Z,24.43
2019-03-30T10:07:14.179Z,27.67
2019-03-30T10:09:47.328Z,25.45
2019-03-30T10:12:18.490Z,25.20
2019-03-30T10:14:49.855Z,25.77
2019-03-30T10:17:21.140Z,24.72
2019-03-30T10:20:03.623Z,26.42
2019-03-30T10:22:25.350Z,24.82
2019-03-30T10:24:58.454Z,27.40
2019-03-30T10:27:29.913Z,25.88
2019-03-30T10:30:01.096Z,23.07
2019-03-30T10:32:32.371Z,21.80
2019-03-30T10:35:03.818Z,22.30
2019-03-30T10:37:35.206Z,26.93
2019-03-30T10:40:07.486Z,24.92
2019-03-30T10:42:38.695Z,23.20
2019-03-30T10:45:11.449Z,26.02
2019-03-30T10:47:42.714Z,29.20
2019-03-30T10:50:14.265Z,25.15
2019-03-30T10:52:45.635Z,22.50
2019-03-30T10:55:16.863Z,24.60
2019-03-30T10:57:48.067Z,23.05
2019-03-30T11:00:40.347Z,24.18
2019-03-30T11:03:11.622Z,21.55
2019-03-30T11:05:42.898Z,25.52
2019-03-30T11:08:14.347Z,21.60
2019-03-30T11:10:45.537Z,22.77
2019-03-30T11:13:16.703Z,20.60
2019-03-30T11:15:47.877Z,21.68
2019-03-30T11:18:19.238Z,22.62
2019-03-30T11:20:50.465Z,21.75
2019-03-30T11:23:21.682Z,26.10
2019-03-30T11:25:52.905Z,21.00
2019-03-30T11:28:24.110Z,21.10
2019-03-30T11:30:55.307Z,23.87
2019-03-30T11:33:26.537Z,23.05
2019-03-30T11:35:57.741Z,24.52
2019-03-30T11:38:28.904Z,23.02
2019-03-30T11:41:00.233Z,21.52
2019-03-30T11:43:31.410Z,23.05
2019-03-30T11:46:02.678Z,19.57
2019-03-30T11:48:37.160Z,21.40
2019-03-30T11:51:06.973Z,20.10
2019-03-30T11:53:38.391Z,18.73
2019-03-30T11:56:09.853Z,16.95
2019-03-30T11:58:41.399Z,17.50
2019-03-30T12:01:13.615Z,18.25
2019-03-30T12:03:44.820Z,19.40
2019-03-30T12:06:16.063Z,16.30
2019-03-30T12:08:47.472Z,20.00
2019-03-30T12:11:18.697Z,15.98
2019-03-30T12:13:50.052Z,14.60
2019-03-30T12:16:21.309Z,18.95
2019-03-30T12:18:52.553Z,18.77
2019-03-30T12:21:23.773Z,17.20
2019-03-30T12:23:54.972Z,19.67
2019-03-30T12:26:26.139Z,17.87
2019-03-30T12:28:57.310Z,17.23
2019-03-30T12:31:28.488Z,17.02
2019-03-30T12:33:59.693Z,23.60
2019-03-30T12:36:31.073Z,19.80
2019-03-30T12:39:03.775Z,19.75
2019-03-30T12:41:35.065Z,19.57
2019-03-30T12:44:06.716Z,18.02
2019-03-30T12:46:42.434Z,17.87
2019-03-30T12:49:14.831Z,16.65
2019-03-30T12:51:46.161Z,17.67
2019-03-30T12:54:17.553Z,18.50
2019-03-30T12:56:49.089Z,19.32
2019-03-30T12:59:20.527Z,17.12
2019-03-30T13:01:51.895Z,16.00
2019-03-30T13:04:23.318Z,16.77
2019-03-30T13:06:54.900Z,19.10
2019-03-30T13:09:26.169Z,17.48
2019-03-30T13:11:57.316Z,22.65
2019-03-30T13:14:28.631Z,19.77
2019-03-30T13:16:59.802Z,24.95
2019-03-30T13:19:30.984Z,20.48
2019-03-30T13:22:02.225Z,19.25
2019-03-30T13:24:33.764Z,21.97
2019-03-30T13:27:04.955Z,23.20
2019-03-30T13:29:36.185Z,20.80
2019-03-30T13:32:07.363Z,24.67
2019-03-30T13:34:38.526Z,25.20
2019-03-30T13:37:19.354Z,28.65
2019-03-30T13:39:50.570Z,24.87
2019-03-30T13:42:21.803Z,25.75
2019-03-30T13:44:52.993Z,29.15
2019-03-30T13:47:24.179Z,29.10
2019-03-30T13:49:55.481Z,28.65
2019-03-30T13:52:26.721Z,27.95
2019-03-30T13:54:57.919Z,29.40
2019-03-30T13:57:29.116Z,27.70
2019-03-30T14:00:00.395Z,57.78
2019-03-30T14:02:31.581Z,32.67
2019-03-30T14:05:02.747Z,26.77
2019-03-30T14:07:33.998Z,28.32
2019-03-30T14:10:05.742Z,25.97
2019-03-30T14:12:37.350Z,27.22
2019-03-30T14:15:09.495Z,27.20
2019-03-30T14:17:41.431Z,26.40
2019-03-30T14:20:12.829Z,33.65
2019-03-30T14:22:44.042Z,28.52
2019-03-30T14:25:15.222Z,56.77
2019-03-30T14:27:46.462Z,38.85
2019-03-30T14:30:17.881Z,35.95
2019-03-30T14:32:49.036Z,39.15
2019-03-30T14:35:20.222Z,31.15
2019-03-30T14:37:51.444Z,28.32
2019-03-30T14:40:22.665Z,33.58
2019-03-30T14:42:53.867Z,40.78
2019-03-30T14:45:25.184Z,35.15
2019-03-30T14:47:58.020Z,30.23
2019-03-30T14:50:29.558Z,34.10
2019-03-30T14:53:01.209Z,31.17
2019-03-30T14:55:32.369Z,29.80
2019-03-30T14:58:03.725Z,29.65
2019-03-30T15:00:34.998Z,30.27
2019-03-30T15:03:06.319Z,31.10
2019-03-30T15:05:37.717Z,30.77
2019-03-30T15:08:08.903Z,28.02
2019-03-30T15:10:40.110Z,26.85
2019-03-30T15:13:11.361Z,28.12
2019-03-30T15:15:42.602Z,27.82
2019-03-30T15:18:13.831Z,30.48
2019-03-30T15:20:45.141Z,28.30
2019-03-30T15:23:16.310Z,28.73
2019-03-30T15:25:47.526Z,27.65
2019-03-30T15:28:18.832Z,23.12
2019-03-30T15:30:50.027Z,25.60
2019-03-30T15:33:21.306Z,24.70
2019-03-30T15:35:52.520Z,23.65
2019-03-30T15:38:23.793Z,23.22
2019-03-30T15:40:55.795Z,23.38
2019-03-30T15:43:38.142Z,22.20
2019-03-30T15:46:00.442Z,25.85
2019-03-30T15:48:31.696Z,21.73
2019-03-30T15:51:02.888Z,23.70
2019-03-30T15:53:34.103Z,22.98
2019-03-30T15:56:05.375Z,23.52
2019-03-30T15:58:36.812Z,21.25
2019-03-30T16:01:08.010Z,28.23
2019-03-30T16:03:39.279Z,27.52
2019-03-30T16:06:10.480Z,26.23
2019-03-30T16:08:41.706Z,26.07
2019-03-30T16:11:12.921Z,28.00
2019-03-30T16:13:44.152Z,24.92
2019-03-30T16:16:15.334Z,25.62
2019-03-30T16:18:46.705Z,31.68
2019-03-30T16:21:17.916Z,24.00
2019-03-30T16:23:49.169Z,26.60
2019-03-30T16:26:20.357Z,25.40
2019-03-30T16:28:51.544Z,26.48
2019-03-30T16:31:22.864Z,24.80
2019-03-30T16:33:54.055Z,26.42
2019-03-30T16:36:25.302Z,26.87
2019-03-30T16:38:56.544Z,25.75
2019-03-30T16:41:27.879Z,30.17
2019-03-30T16:43:59.147Z,45.03
2019-03-30T16:46:30.348Z,46.70
2019-03-30T16:49:01.529Z,46.50
2019-03-30T16:51:32.876Z,47.62
2019-03-30T16:54:04.111Z,47.38
2019-03-30T16:56:35.340Z,46.77
2019-03-30T16:59:07.044Z,49.53
2019-03-30T17:01:38.380Z,50.50
2019-03-30T17:04:09.615Z,48.10
2019-03-30T17:06:40.809Z,48.28
2019-03-30T17:09:12.152Z,50.20
2019-03-30T17:11:43.348Z,48.02
2019-03-30T17:14:14.607Z,50.38
2019-03-30T17:16:45.831Z,50.20
2019-03-30T17:19:17.026Z,48.52
2019-03-30T17:21:48.358Z,54.83
2019-03-30T17:24:19.563Z,48.78
2019-03-30T17:26:50.843Z,48.13
2019-03-30T17:29:22.088Z,54.88
2019-03-30T17:31:53.316Z,49.65
2019-03-30T17:34:24.519Z,53.23
2019-03-30T17:36:55.801Z,52.27
2019-03-30T17:39:27.027Z,55.60
2019-03-30T17:41:58.295Z,52.88
2019-03-30T17:44:29.549Z,52.70
2019-03-30T17:47:00.744Z,53.75
2019-03-30T17:49:31.965Z,52.58
2019-03-30T17:52:03.307Z,51.63
2019-03-30T17:54:34.563Z,52.80
2019-03-30T17:57:05.781Z,51.92
2019-03-30T17:59:37.041Z,54.30
2019-03-30T18:02:08.280Z,49.65
2019-03-30T18:04:39.877Z,56.25
2019-03-30T18:07:13.638Z,56.65
2019-03-30T18:09:44.164Z,55.35
2019-03-30T18:12:15.430Z,53.38
2019-03-30T18:14:46.671Z,54.70
2019-03-30T18:17:17.923Z,58.68
2019-03-30T18:19:49.184Z,57.15
2019-03-30T18:22:20.520Z,53.98
2019-03-30T18:24:51.773Z,53.50
2019-03-30T18:27:22.989Z,59.05
2019-03-30T18:29:54.201Z,55.43
2019-03-30T18:32:25.634Z,51.85
2019-03-30T18:34:57.010Z,48.98
2019-03-30T18:37:29.866Z,52.73
2019-03-30T18:40:01.162Z,58.00
2019-03-30T18:42:32.510Z,47.75
2019-03-30T18:45:04.505Z,54.45
2019-03-30T18:47:35.699Z,52.27
2019-03-30T18:50:07.778Z,51.25
2019-03-30T18:52:39.220Z,52.10
2019-03-30T18:55:13.455Z,51.50
2019-03-30T18:57:44.748Z,54.23
2019-03-30T19:00:20.938Z,53.95
2019-03-30T19:02:52.199Z,55.52
2019-03-30T19:05:23.515Z,54.48
2019-03-30T19:07:54.914Z,53.28
2019-03-30T19:10:26.169Z,48.25
2019-03-30T19:12:57.512Z,49.80
2019-03-30T19:15:28.911Z,47.93
2019-03-30T19:18:00.097Z,49.05
2019-03-30T19:20:31.338Z,53.98
2019-03-30T19:23:02.673Z,50.70
2019-03-30T19:25:33.925Z,47.30
2019-03-30T19:28:05.216Z,47.75
2019-03-30T19:30:36.391Z,53.75
2019-03-30T19:33:07.673Z,53.25
2019-03-30T19:35:38.923Z,46.53
2019-03-30T19:38:11.013Z,49.30
2019-03-30T19:40:42.583Z,48.98
2019-03-30T19:43:13.843Z,47.53
2019-03-30T19:45:45.089Z,47.53
2019-03-30T19:48:16.366Z,52.00
2019-03-30T19:50:47.841Z,49.25
2019-03-30T19:53:19.061Z,52.45
2019-03-30T19:55:50.296Z,52.80
2019-03-30T19:58:21.543Z,55.23
2019-03-30T20:00:52.749Z,52.62
2019-03-30T20:03:23.956Z,53.75
2019-03-30T20:05:55.184Z,51.90
2019-03-30T20:08:26.504Z,52.10
2019-03-30T20:10:57.694Z,51.33
2019-03-30T20:13:28.926Z,48.58
2019-03-30T20:16:00.079Z,52.60
2019-03-30T20:18:31.287Z,51.77
2019-03-30T20:21:02.598Z,52.93
2019-03-30T20:23:33.879Z,51.98
2019-03-30T20:26:05.105Z,54.88
2019-03-30T20:28:36.460Z,55.35
2019-03-30T20:31:07.694Z,56.35
2019-03-30T20:33:38.889Z,57.05
2019-03-30T20:36:10.165Z,54.40
2019-03-30T20:38:41.403Z,52.25
2019-03-30T20:41:12.582Z,58.38
2019-03-30T20:46:27.819Z,56.15
2019-03-30T20:48:59.231Z,55.70
2019-03-30T20:51:30.549Z,54.15
2019-03-30T20:54:01.790Z,53.95
2019-03-30T20:56:32.943Z,61.70
2019-03-30T20:59:04.231Z,55.60
2019-03-30T21:01:38.262Z,55.20
2019-03-30T21:04:08.370Z,57.53
2019-03-30T21:06:39.670Z,61.37
2019-03-30T21:09:10.903Z,60.10
2019-03-30T21:11:42.155Z,66.37
2019-03-30T21:14:20.861Z,62.53
2019-03-30T21:16:52.118Z,59.18
2019-03-30T21:19:23.382Z,60.88
2019-03-30T21:21:54.668Z,63.87
2019-03-30T21:24:25.949Z,61.83
2019-03-30T21:26:57.161Z,63.35
2019-03-30T21:29:28.378Z,64.35
2019-03-30T21:31:59.607Z,61.55
2019-03-30T21:34:30.930Z,56.05
2019-03-30T21:37:02.168Z,57.50
2019-03-30T21:39:33.436Z,56.83
2019-03-30T21:42:04.665Z,56.33
2019-03-30T21:44:36.294Z,58.28
2019-03-30T21:47:07.550Z,54.93
2019-03-30T21:49:38.802Z,62.80
2019-03-30T21:52:10.291Z,57.05
2019-03-30T21:54:41.457Z,54.48
2019-03-30T21:57:12.665Z,56.28
2019-03-30T21:59:43.913Z,60.38
2019-03-30T22:02:15.301Z,54.55
2019-03-30T22:04:46.516Z,64.67
2019-03-30T22:07:17.852Z,63.13
2019-03-30T22:09:49.719Z,62.10
2019-03-30T22:12:20.943Z,65.72
2019-03-30T22:14:52.128Z,61.33
2019-03-30T22:17:23.508Z,63.58
2019-03-30T22:19:54.771Z,66.22
2019-03-30T22:22:26.009Z,61.40
2019-03-30T22:24:57.349Z,49.38
2019-03-30T22:27:28.517Z,65.80
2019-03-30T22:29:59.743Z,67.50
2019-03-30T22:32:30.948Z,63.45
2019-03-30T22:35:02.331Z,66.12
2019-03-30T22:37:33.659Z,63.52
2019-03-30T22:40:05.810Z,57.83
2019-03-30T22:42:37.188Z,58.40
2019-03-30T22:45:09.253Z,63.58
2019-03-30T22:47:40.452Z,60.35
2019-03-30T22:50:12.353Z,60.73
2019-03-30T22:52:43.564Z,60.58
2019-03-30T22:55:14.815Z,62.17
2019-03-30T22:57:46.066Z,61.42
2019-03-30T23:00:39.617Z,70.30
2019-03-30T23:03:11.407Z,65.42
2019-03-30T23:05:42.793Z,63.75
2019-03-30T23:08:13.993Z,62.58
2019-03-30T23:10:45.261Z,62.85
2019-03-30T23:13:16.571Z,63.87
2019-03-30T23:15:47.819Z,62.23
2019-03-30T23:18:19.169Z,68.57
2019-03-30T23:20:50.368Z,67.40
2019-03-30T23:23:21.589Z,69.30
2019-03-30T23:25:52.864Z,75.97
2019-03-30T23:28:24.081Z,72.75
2019-03-30T23:30:55.326Z,73.67
2019-03-30T23:33:26.593Z,73.22
2019-03-30T23:35:57.785Z,76.90
2019-03-30T23:38:28.957Z,74.45
2019-03-30T23:41:00.265Z,75.35
2019-03-30T23:43:31.497Z,74.42
2019-03-30T23:46:02.785Z,80.70
2019-03-30T23:48:34.014Z,79.95
2019-03-30T23:51:05.214Z,82.02
2019-03-30T23:53:36.451Z,82.47
2019-03-30T23:56:23.987Z,85.05
2019-03-30T23:58:55.336Z,80.32
